Terminal Aerodrome Forecast
Issued by NWS Charleston, WV

Current Version | Previous Version | Text Only | Print | Product List | Glossary Off
Versions: 1 2 3 4 5 6 7 8 9 10 11 12 13 14 15 16 17 18 19 20 21 22 23 24 25

000
FTUS41 KRLX 271436 AAB
TAFPKB
TAF AMD
KPKB 271436Z 2715/2812 25006KT P6SM BKN008 BKN015
      TEMPO 2715/2716 BKN025
     FM271600 24005KT P6SM BKN025
      TEMPO 2716/2718 BKN035
     FM271800 22005KT P6SM BKN040
     FM280100 15003KT P6SM SHRA VCTS BKN060CB
     FM280500 18003KT 4SM SHRA BKN035=

USA.gov is the U.S. government's official web portal to all federal, state and local government web resources and services.